Aeroporto :







RITROVATECI SU...

 
LOGIN :

Iscrizione | Disclaimer

   EN    FR    IT 

 









Sommario :    VFR   VFR Marginale   IFR   IFR Intensivo   IFR Molto Intensivo
Visibilità : 
Base nubi : 
>= 8 km
>= 3000ft
5 / 8 km
1000 / 3000 ft
1500m / 5 km
500 / 1000 ft
800 / 1500m
200 / 500 ft
< 800m
< 200 ft
Simboli :   Temporali  Nebbia  Neve Forte  Precipitazioni Forti  Vento > 20 kt






- Altitudine del aeroporto : 603 ft
- Codice IATA : LEB


KLEB - Lebanon Municipal

ULTIMO METAR :
  • 090153Z 19016KT 10SM OVC038 M01/M08 A3025 RMK AO2 SLP259 T10111083

METARs OBSOLETI :
  • 090053Z 19015KT 10SM FEW050 M01/M09 A3026 RMK AO2 SLP266 T10111094
  • 082353Z 20009KT 10SM CLR M01/M11 A3027 RMK AO2 SLP268 T10111106 11011 21044 56014

TAF KLEB
Valido dal 09 a 00 ore il 10 a 00 ore UTC


082333Z 0900/0924 19009KT P6SM OVC120 WS020/22040KT
FM090600 20006KT P6SM OVC035 WS020/22040KT
FM091300 VRB03KT 4SM -RA BR OVC015 WS020/21040KT
FM091800 16004KT 2SM -RA BR OVC004



MetMap, La meteo Aeronautica in un colpo d'occhio ! - Copyright ORBIFLY Dicembre 2007 - Disclaimer

ORBIFLY MET'MAP TEAM :

Programmazione e sviluppo : Alexandra Zaïnal
Concezione : Baudouin d'Aumeries
Aiuto per la programmazione : Marc-Olivier Méhu
Supporto tecnico e logistico : Manuel Goepfert
Aiuto per la traduzione : Arnaldo La Scala

Contatto : metmap@orbifly.com




FONTI E CREDITI :

   NOAA